Time;durP1;ratioP1;P1;durP2;ratioP2;P2;SDS_P1;SDS_P2;PMS_P1;PMS_P2;Temp;Humidity;BMP_temperature;BMP_pressure;BME280_temperature;BME280_humidity;BME280_pressure;Samples;Min_cycle;Max_cycle;Signal;HPM_P1;HPM_P2
2022/11/07 00:01:09;;;;;;;8.77;3.30;;;11.00;99.90;;;;;;5093257;28;20205;-52
2022/11/07 00:03:35;;;;;;;8.85;3.42;;;11.00;99.90;;;;;;5093035;28;20261;-51
2022/11/07 00:06:01;;;;;;;6.97;3.42;;;11.00;99.90;;;;;;5092712;28;20179;-50
2022/11/07 00:08:30;;;;;;;16.67;5.50;;;10.90;99.90;;;;;;5093265;28;20166;-51
2022/11/07 00:10:57;;;;;;;13.75;4.78;;;10.90;99.90;;;;;;5093444;28;20177;-51
2022/11/07 00:13:23;;;;;;;10.00;3.70;;;10.90;99.90;;;;;;5092821;28;20187;-51
2022/11/07 00:15:49;;;;;;;5.78;3.38;;;10.90;99.90;;;;;;5093023;28;20177;-51
2022/11/07 00:18:14;;;;;;;8.63;3.72;;;10.90;99.90;;;;;;5093630;28;20226;-51
2022/11/07 00:20:40;;;;;;;10.23;3.55;;;10.90;99.90;;;;;;5074773;28;20367;-52
2022/11/07 00:23:05;;;;;;;11.70;4.00;;;10.80;99.90;;;;;;5092912;28;20169;-53
2022/11/07 00:25:31;;;;;;;4.97;2.30;;;10.80;99.90;;;;;;5092929;28;20653;-52
2022/11/07 00:27:56;;;;;;;14.10;3.78;;;10.90;99.90;;;;;;5092960;28;20574;-52
2022/11/07 00:30:22;;;;;;;6.68;2.88;;;10.90;99.90;;;;;;5092866;28;20189;-52
2022/11/07 00:32:47;;;;;;;4.18;2.35;;;10.90;99.90;;;;;;5092885;28;20188;-53
2022/11/07 00:35:13;;;;;;;6.85;2.20;;;10.80;99.90;;;;;;5092707;28;20177;-54
2022/11/07 00:37:39;;;;;;;2.50;1.42;;;10.90;99.90;;;;;;5092404;28;20169;-52
2022/11/07 00:40:05;;;;;;;3.10;1.23;;;10.90;99.90;;;;;;5092832;28;20629;-52
2022/11/07 00:42:30;;;;;;;3.17;1.30;;;10.90;99.90;;;;;;5092532;28;20201;-52
2022/11/07 00:44:56;;;;;;;3.92;1.52;;;10.90;99.90;;;;;;5092554;28;20235;-52
2022/11/07 00:47:21;;;;;;;10.18;2.25;;;11.00;99.90;;;;;;5092188;28;20165;-52
2022/11/07 00:49:47;;;;;;;5.10;1.48;;;11.00;99.90;;;;;;5092697;28;20153;-53
2022/11/07 00:52:12;;;;;;;7.72;2.00;;;11.00;99.90;;;;;;5092822;28;20192;-52
2022/11/07 00:54:38;;;;;;;3.30;1.63;;;11.00;99.90;;;;;;5092344;28;20207;-52
2022/11/07 00:57:03;;;;;;;2.13;1.45;;;11.00;99.90;;;;;;5092443;28;20219;-52
2022/11/07 00:59:29;;;;;;;6.65;2.03;;;11.00;99.90;;;;;;5092259;28;20176;-52
2022/11/07 01:01:55;;;;;;;3.67;1.83;;;11.10;99.90;;;;;;5091709;28;20609;-52
2022/11/07 01:07:05;;;;;;;2.72;1.40;;;11.10;99.90;;;;;;5092217;28;20248;-52
2022/11/07 01:09:31;;;;;;;2.42;1.60;;;11.10;99.90;;;;;;5092395;28;20180;-54
2022/11/07 01:11:57;;;;;;;5.10;1.60;;;11.00;99.90;;;;;;5092110;28;20165;-52
2022/11/07 01:14:23;;;;;;;4.18;1.40;;;11.00;99.90;;;;;;5091900;28;20656;-52
2022/11/07 01:16:49;;;;;;;5.72;1.30;;;11.00;99.90;;;;;;5092082;28;20174;-51
2022/11/07 01:19:16;;;;;;;2.85;1.60;;;11.10;99.90;;;;;;5092267;28;20165;-53
2022/11/07 01:21:42;;;;;;;5.68;1.70;;;11.10;99.90;;;;;;5091937;28;20566;-52
2022/11/07 01:24:10;;;;;;;6.75;1.77;;;11.10;99.90;;;;;;5092005;28;20161;-52
2022/11/07 01:26:36;;;;;;;5.10;1.55;;;11.10;99.90;;;;;;5092233;28;20177;-53
2022/11/07 01:29:04;;;;;;;4.18;1.42;;;11.10;99.90;;;;;;5091839;28;20212;-52
2022/11/07 01:31:32;;;;;;;5.78;1.55;;;11.00;99.90;;;;;;5091559;28;20169;-52
2022/11/07 01:33:59;;;;;;;2.40;1.20;;;11.10;99.90;;;;;;5091878;28;20754;-52
2022/11/07 01:36:25;;;;;;;6.38;1.83;;;11.10;99.90;;;;;;5073451;28;20652;-53
2022/11/07 01:38:51;;;;;;;11.85;3.05;;;11.00;99.90;;;;;;5091824;28;20161;-52
2022/11/07 01:41:21;;;;;;;8.23;3.13;;;11.00;99.90;;;;;;5092161;28;20318;-51
2022/11/07 01:43:54;;;;;;;10.00;4.20;;;11.00;99.90;;;;;;5092358;28;20165;-52
2022/11/07 01:46:23;;;;;;;15.75;4.55;;;11.00;99.90;;;;;;5094077;28;20173;-52
2022/11/07 01:48:55;;;;;;;15.73;4.00;;;11.00;99.90;;;;;;5096132;28;20616;-53
2022/11/07 01:51:22;;;;;;;11.63;3.78;;;11.00;99.90;;;;;;5095793;28;20161;-52
2022/11/07 01:53:49;;;;;;;8.60;3.00;;;11.00;99.90;;;;;;5096020;28;20165;-54
2022/11/07 01:56:17;;;;;;;10.85;3.58;;;11.00;99.90;;;;;;5096241;28;20250;-52
2022/11/07 01:58:45;;;;;;;13.90;4.15;;;11.00;99.90;;;;;;5096374;28;20507;-51
2022/11/07 02:01:11;;;;;;;11.55;4.45;;;11.00;99.90;;;;;;5095708;28;20207;-52
2022/11/07 02:03:37;;;;;;;14.57;3.38;;;11.10;99.90;;;;;;5095070;28;20216;-52
2022/11/07 02:06:08;;;;;;;11.65;3.17;;;11.10;99.90;;;;;;5095541;28;20157;-52
2022/11/07 02:08:35;;;;;;;11.52;2.88;;;11.00;99.90;;;;;;5095557;28;20173;-52
2022/11/07 02:11:02;;;;;;;14.23;3.92;;;11.00;99.90;;;;;;5095561;28;20207;-52
2022/11/07 02:13:29;;;;;;;14.05;3.53;;;11.00;99.90;;;;;;5095680;28;20169;-51
2022/11/07 02:15:59;;;;;;;10.60;3.78;;;11.00;99.90;;;;;;5095460;28;20188;-52
2022/11/07 02:18:26;;;;;;;13.80;3.92;;;11.00;99.90;;;;;;5095590;28;20178;-52
2022/11/07 02:20:56;;;;;;;13.27;3.63;;;11.00;99.90;;;;;;5095288;28;20645;-54
2022/11/07 02:23:47;;;;;;;12.00;3.90;;;11.80;99.90;;;;;;5095212;28;20180;-53
2022/11/07 02:26:13;;;;;;;12.40;3.88;;;11.00;99.90;;;;;;5086956;28;20205;-53
2022/11/07 02:28:41;;;;;;;9.88;3.05;;;11.00;99.90;;;;;;5095159;28;20205;-55
2022/11/07 02:31:07;;;;;;;10.10;2.70;;;11.00;99.90;;;;;;5095275;28;20752;-52
2022/11/07 02:33:32;;;;;;;13.75;3.20;;;11.00;99.90;;;;;;5095190;28;20200;-55
2022/11/07 02:36:00;;;;;;;11.90;3.63;;;11.10;99.90;;;;;;5095152;28;20166;-55
2022/11/07 02:38:31;;;;;;;12.95;3.55;;;11.10;99.90;;;;;;5095192;28;20211;-55
2022/11/07 02:41:17;;;;;;;12.45;4.05;;;11.00;99.90;;;;;;5095079;28;20232;-54
2022/11/07 02:43:48;;;;;;;11.88;3.15;;;11.10;99.90;;;;;;5095228;28;20184;-52
2022/11/07 02:46:15;;;;;;;13.63;3.88;;;11.10;99.90;;;;;;5094953;28;20550;-51
2022/11/07 02:48:46;;;;;;;12.40;3.85;;;11.00;99.90;;;;;;5094830;28;20211;-52
2022/11/07 02:51:12;;;;;;;10.07;3.40;;;11.00;99.90;;;;;;5094756;28;20169;-55
2022/11/07 02:53:37;;;;;;;8.20;3.38;;;11.00;99.90;;;;;;5076535;28;20222;-54
2022/11/07 02:56:03;;;;;;;13.00;2.85;;;11.00;99.90;;;;;;5094615;28;20211;-55
2022/11/07 02:58:29;;;;;;;10.18;2.33;;;11.10;99.90;;;;;;5094541;28;20193;-54
2022/11/07 03:01:01;;;;;;;6.95;1.92;;;11.00;99.90;;;;;;5094523;28;20290;-55
2022/11/07 03:03:28;;;;;;;8.70;1.92;;;11.10;99.90;;;;;;5094654;28;20583;-55
2022/11/07 03:05:53;;;;;;;6.68;2.25;;;11.10;99.90;;;;;;5076901;28;20180;-55
2022/11/07 03:08:19;;;;;;;7.03;2.22;;;11.10;99.90;;;;;;5094488;28;20166;-55
2022/11/07 03:10:44;;;;;;;8.05;2.13;;;11.10;99.90;;;;;;5094793;28;20165;-54
2022/11/07 03:13:10;;;;;;;5.35;2.20;;;11.00;99.90;;;;;;5094376;28;20169;-55
2022/11/07 03:15:35;;;;;;;8.60;1.80;;;11.10;99.90;;;;;;5094330;28;20165;-55
2022/11/07 03:18:01;;;;;;;6.57;1.95;;;11.10;99.90;;;;;;5094286;28;20165;-55
2022/11/07 03:20:26;;;;;;;8.98;2.25;;;11.00;99.90;;;;;;5094233;28;20169;-55
2022/11/07 03:22:52;;;;;;;10.32;3.17;;;11.00;99.90;;;;;;5094227;28;20700;-55
2022/11/07 03:25:18;;;;;;;6.63;2.67;;;11.00;99.90;;;;;;5094203;28;20624;-55
2022/11/07 03:27:48;;;;;;;7.68;2.78;;;10.90;99.90;;;;;;5094681;28;20547;-54
2022/11/07 03:30:14;;;;;;;10.90;3.45;;;10.90;99.90;;;;;;5094491;28;20629;-55
2022/11/07 03:32:40;;;;;;;16.60;4.00;;;10.90;99.90;;;;;;5093982;28;20197;-53
2022/11/07 03:35:06;;;;;;;20.60;4.43;;;10.90;99.90;;;;;;5094206;28;20583;-54
2022/11/07 03:37:31;;;;;;;14.70;3.13;;;10.90;99.90;;;;;;5093924;28;20165;-55
2022/11/07 03:39:57;;;;;;;13.32;4.10;;;10.90;99.90;;;;;;5093901;28;20218;-52
2022/11/07 03:42:22;;;;;;;13.02;4.28;;;11.00;99.90;;;;;;5093714;28;20594;-54
2022/11/07 03:44:48;;;;;;;21.55;6.00;;;11.00;99.90;;;;;;5093412;28;20603;-54
2022/11/07 03:47:13;;;;;;;15.82;5.28;;;10.90;99.90;;;;;;5075770;28;20575;-55
2022/11/07 03:49:39;;;;;;;13.77;5.15;;;10.90;99.90;;;;;;5093625;28;20253;-52
2022/11/07 03:52:05;;;;;;;31.35;6.07;;;10.90;99.90;;;;;;5075595;28;20177;-55
2022/11/07 03:54:30;;;;;;;20.02;5.47;;;10.90;99.90;;;;;;5093565;28;20164;-54
2022/11/07 03:56:56;;;;;;;20.42;5.88;;;10.90;99.90;;;;;;5093635;28;20272;-53
2022/11/07 03:59:21;;;;;;;15.63;5.47;;;10.80;99.90;;;;;;5093473;28;20205;-54
2022/11/07 04:01:47;;;;;;;20.70;6.50;;;10.80;99.90;;;;;;5093425;28;20246;-53
2022/11/07 04:04:12;;;;;;;19.10;5.50;;;10.80;99.90;;;;;;5093398;28;20213;-54
2022/11/07 04:06:38;;;;;;;15.57;5.85;;;10.80;99.90;;;;;;5093269;28;20261;-53
2022/11/07 04:09:04;;;;;;;18.00;6.18;;;10.80;99.90;;;;;;5092740;28;20176;-53
2022/11/07 04:17:31;;;;;;;17.65;5.13;;;10.80;99.90;;;;;;5093121;28;20173;-54
2022/11/07 04:19:53;;;;;;;11.10;3.30;;;10.80;99.90;;;;;;5089595;28;20271;-54
2022/11/07 04:22:19;;;;;;;17.60;3.83;;;10.80;99.90;;;;;;5093134;28;20236;-54
2022/11/07 04:24:45;;;;;;;14.63;3.45;;;10.80;99.90;;;;;;5093334;28;20636;-55
2022/11/07 04:29:56;;;;;;;4.82;2.33;;;10.90;99.90;;;;;;5092931;28;20541;-55
2022/11/07 04:32:23;;;;;;;5.97;1.70;;;10.80;99.90;;;;;;5074751;28;20157;-54
2022/11/07 04:34:52;;;;;;;8.10;2.05;;;10.80;99.90;;;;;;5093046;28;20169;-56
2022/11/07 04:37:18;;;;;;;12.27;2.30;;;10.80;99.90;;;;;;5092693;28;20165;-54
2022/11/07 04:39:44;;;;;;;9.02;2.50;;;10.80;99.90;;;;;;5093074;28;20173;-55
2022/11/07 04:42:09;;;;;;;7.57;2.50;;;10.90;99.90;;;;;;5092613;28;20208;-55
2022/11/07 04:44:35;;;;;;;9.75;2.00;;;10.90;99.90;;;;;;5074502;28;20169;-55
2022/11/07 04:47:01;;;;;;;8.75;3.03;;;10.90;99.90;;;;;;5092573;28;20177;-55
2022/11/07 04:49:26;;;;;;;9.35;2.13;;;10.90;99.90;;;;;;5092531;28;20170;-51
2022/11/07 04:51:56;;;;;;;8.50;2.38;;;10.90;99.90;;;;;;5092444;28;20260;-52
2022/11/07 04:54:21;;;;;;;9.70;2.75;;;10.90;99.90;;;;;;5092145;28;20644;-52
2022/11/07 04:56:47;;;;;;;7.18;2.60;;;11.00;99.90;;;;;;5092402;28;20172;-54
2022/11/07 04:59:13;;;;;;;9.20;2.67;;;11.00;99.90;;;;;;5092684;28;20172;-54
2022/11/07 05:01:38;;;;;;;6.70;2.38;;;11.00;99.90;;;;;;5092213;28;20541;-53
2022/11/07 05:04:04;;;;;;;4.43;2.08;;;11.00;99.90;;;;;;5092142;28;20546;-52
2022/11/07 05:06:35;;;;;;;4.28;1.67;;;11.00;99.90;;;;;;5092203;28;20621;-53
2022/11/07 05:09:01;;;;;;;6.50;2.22;;;11.10;99.90;;;;;;5092092;28;20247;-52
2022/11/07 05:11:27;;;;;;;7.22;1.73;;;11.10;99.90;;;;;;5092146;28;20201;-53
2022/11/07 05:13:52;;;;;;;6.05;1.67;;;11.10;99.90;;;;;;5092127;28;20168;-52
2022/11/07 05:16:18;;;;;;;6.30;1.55;;;11.10;99.90;;;;;;5092139;28;20173;-52
2022/11/07 05:18:43;;;;;;;5.00;1.70;;;11.20;99.90;;;;;;5092253;28;20191;-53
2022/11/07 05:21:09;;;;;;;7.80;1.95;;;11.20;99.90;;;;;;5091052;28;20193;-52
2022/11/07 05:23:35;;;;;;;4.80;1.65;;;11.10;99.90;;;;;;5092215;28;20169;-53
2022/11/07 05:26:00;;;;;;;3.80;1.83;;;11.10;99.90;;;;;;5091953;28;20520;-53
2022/11/07 05:28:28;;;;;;;3.63;1.65;;;11.20;99.90;;;;;;5091976;28;20188;-52
2022/11/07 05:30:58;;;;;;;7.90;1.90;;;11.20;99.90;;;;;;5092173;28;20190;-53
2022/11/07 05:33:24;;;;;;;11.85;1.70;;;11.20;99.90;;;;;;5092131;28;20290;-53
2022/11/07 05:35:50;;;;;;;9.25;1.60;;;11.20;99.90;;;;;;5091867;28;20222;-52
2022/11/07 05:38:16;;;;;;;7.07;1.45;;;11.30;99.90;;;;;;5092134;28;20162;-52
2022/11/07 05:40:41;;;;;;;5.88;1.50;;;11.40;99.90;;;;;;5091896;28;20168;-54
2022/11/07 05:43:10;;;;;;;5.80;1.88;;;11.40;99.90;;;;;;5091578;28;20173;-52
2022/11/07 05:45:36;;;;;;;8.60;1.90;;;11.40;99.90;;;;;;5091952;28;20172;-52
2022/11/07 05:48:05;;;;;;;7.63;2.20;;;11.40;99.90;;;;;;5091465;28;20649;-52
2022/11/07 05:50:31;;;;;;;5.75;2.55;;;11.50;99.90;;;;;;5091506;28;20193;-52
2022/11/07 05:52:57;;;;;;;11.02;1.65;;;11.50;99.90;;;;;;5091230;28;20197;-52
2022/11/07 05:55:23;;;;;;;4.85;1.83;;;11.50;99.90;;;;;;5091423;28;20169;-52
2022/11/07 05:57:50;;;;;;;4.15;1.55;;;11.50;99.90;;;;;;5091635;28;20166;-53
2022/11/07 06:00:16;;;;;;;5.47;1.70;;;11.50;99.90;;;;;;5092322;28;20256;-53
2022/11/07 06:02:42;;;;;;;5.45;1.65;;;11.50;99.90;;;;;;5091808;28;20295;-53
2022/11/07 06:05:08;;;;;;;5.75;1.73;;;11.60;99.90;;;;;;5091516;28;20196;-51
2022/11/07 06:07:35;;;;;;;8.25;1.80;;;11.50;99.90;;;;;;5091510;28;20173;-51
2022/11/07 06:10:01;;;;;;;4.15;1.90;;;11.60;99.90;;;;;;5091485;28;20170;-51
2022/11/07 06:12:27;;;;;;;6.25;2.00;;;11.60;99.90;;;;;;5073482;28;20264;-51
2022/11/07 06:14:53;;;;;;;5.70;1.60;;;11.60;99.90;;;;;;5091806;28;20257;-52
2022/11/07 06:17:18;;;;;;;5.22;2.10;;;11.70;99.90;;;;;;5091138;28;20215;-53
2022/11/07 06:19:44;;;;;;;5.88;1.75;;;11.60;99.90;;;;;;5091623;28;20173;-53
2022/11/07 06:22:10;;;;;;;11.57;1.75;;;11.60;99.90;;;;;;5073187;28;20295;-52
2022/11/07 06:24:35;;;;;;;7.25;1.70;;;11.70;99.90;;;;;;5091401;28;20629;-53
2022/11/07 06:27:01;;;;;;;6.15;1.70;;;11.70;99.90;;;;;;5073407;28;20504;-54
2022/11/07 06:29:26;;;;;;;5.07;1.73;;;11.60;99.90;;;;;;5091703;28;20169;-55
2022/11/07 06:31:52;;;;;;;7.55;1.83;;;11.70;99.90;;;;;;5092347;28;20170;-54
2022/11/07 06:34:17;;;;;;;8.30;1.55;;;11.70;99.90;;;;;;5094896;28;20161;-55
2022/11/07 06:36:43;;;;;;;9.20;2.58;;;11.70;99.90;;;;;;5095281;28;20244;-53
2022/11/07 06:39:08;;;;;;;7.65;1.88;;;11.70;99.90;;;;;;5095119;28;20162;-55
2022/11/07 06:41:34;;;;;;;6.25;1.45;;;11.80;99.90;;;;;;5094652;28;20558;-55
2022/11/07 06:43:59;;;;;;;6.03;1.35;;;11.90;99.90;;;;;;5094759;28;20228;-55
2022/11/07 06:46:25;;;;;;;7.97;2.03;;;11.90;99.90;;;;;;5094710;28;20193;-53
2022/11/07 06:48:51;;;;;;;6.45;1.77;;;12.00;99.90;;;;;;5094737;28;20191;-53
2022/11/07 06:51:16;;;;;;;9.18;1.80;;;12.00;99.90;;;;;;5094809;28;20167;-55
2022/11/07 06:53:42;;;;;;;10.10;1.90;;;12.00;99.90;;;;;;5076907;28;20165;-53
2022/11/07 06:56:12;;;;;;;8.82;2.10;;;12.10;99.90;;;;;;5094639;28;20201;-53
2022/11/07 06:58:37;;;;;;;5.75;1.55;;;12.10;99.90;;;;;;5094532;28;20629;-52
2022/11/07 07:01:08;;;;;;;8.60;1.90;;;12.10;99.90;;;;;;5094495;28;20197;-53
2022/11/07 07:03:34;;;;;;;6.45;2.17;;;12.20;99.90;;;;;;5094418;28;20221;-53
2022/11/07 07:06:05;;;;;;;10.93;2.60;;;12.20;99.90;;;;;;5094457;28;20240;-53
2022/11/07 07:08:32;;;;;;;5.40;1.90;;;12.20;99.90;;;;;;5094660;28;20239;-53
2022/11/07 07:11:04;;;;;;;5.47;2.10;;;12.20;99.90;;;;;;5094409;28;20166;-52
2022/11/07 07:13:30;;;;;;;6.18;1.33;;;12.30;99.90;;;;;;5094405;28;20169;-55
2022/11/07 07:15:56;;;;;;;7.32;1.88;;;12.30;99.90;;;;;;5094240;28;20162;-54
2022/11/07 07:18:22;;;;;;;4.78;1.75;;;12.30;99.90;;;;;;5094388;28;20663;-54
2022/11/07 07:20:49;;;;;;;9.38;1.80;;;12.40;99.90;;;;;;5094014;28;20252;-54
2022/11/07 07:23:18;;;;;;;10.23;1.75;;;12.30;99.90;;;;;;5094767;28;20173;-53
2022/11/07 07:25:45;;;;;;;6.20;1.73;;;12.40;99.90;;;;;;5094480;28;20161;-53
2022/11/07 07:28:10;;;;;;;5.57;3.05;;;12.50;99.90;;;;;;5094376;28;20663;-54
2022/11/07 07:30:36;;;;;;;9.63;1.92;;;12.50;99.90;;;;;;5093950;28;20252;-53
2022/11/07 07:33:02;;;;;;;5.15;1.80;;;12.60;99.90;;;;;;5093904;28;20181;-53
2022/11/07 07:35:28;;;;;;;10.60;2.00;;;12.70;99.90;;;;;;5093928;28;20693;-53
2022/11/07 07:37:53;;;;;;;4.20;1.90;;;12.70;99.90;;;;;;5093799;28;20169;-52
2022/11/07 07:40:19;;;;;;;8.40;1.80;;;12.70;99.90;;;;;;5093926;28;20166;-53
2022/11/07 07:42:45;;;;;;;9.77;1.88;;;12.80;99.90;;;;;;5093585;28;20664;-54
2022/11/07 07:45:12;;;;;;;3.33;1.80;;;12.80;99.90;;;;;;5093563;28;20299;-53
2022/11/07 07:47:38;;;;;;;11.38;3.55;;;12.80;99.90;;;;;;5093618;28;20754;-53
2022/11/07 07:50:06;;;;;;;8.05;2.15;;;12.80;99.90;;;;;;5093655;28;20632;-55
2022/11/07 07:52:31;;;;;;;5.07;1.85;;;12.80;99.90;;;;;;5093581;28;20166;-53
2022/11/07 07:54:57;;;;;;;5.40;1.50;;;12.80;99.90;;;;;;5093532;28;20171;-54
2022/11/07 07:57:22;;;;;;;6.00;2.03;;;12.80;99.90;;;;;;5093453;28;20187;-54
2022/11/07 07:59:48;;;;;;;6.22;1.77;;;12.80;99.90;;;;;;5075290;28;20269;-52
2022/11/07 08:02:14;;;;;;;6.43;1.77;;;12.90;99.90;;;;;;5093498;28;20225;-55
2022/11/07 08:04:40;;;;;;;5.93;1.83;;;12.90;99.90;;;;;;5093337;28;20193;-52
2022/11/07 08:07:06;;;;;;;6.35;1.77;;;12.90;99.90;;;;;;5093321;28;20226;-55
2022/11/07 08:09:35;;;;;;;6.43;2.30;;;12.90;99.90;;;;;;5093259;28;20169;-53
2022/11/07 08:12:02;;;;;;;9.18;2.00;;;12.90;99.90;;;;;;5093397;28;20173;-55
2022/11/07 08:14:28;;;;;;;7.93;2.97;;;12.90;99.90;;;;;;5093056;28;20172;-52
2022/11/07 08:16:54;;;;;;;13.75;4.45;;;12.90;99.90;;;;;;5093152;28;20173;-55
2022/11/07 08:19:19;;;;;;;8.52;2.60;;;12.90;99.90;;;;;;5074920;28;20200;-54
2022/11/07 08:21:45;;;;;;;17.48;4.30;;;12.90;99.90;;;;;;5093000;28;20307;-52
2022/11/07 08:24:12;;;;;;;10.88;5.25;;;12.90;99.90;;;;;;5093367;28;20174;-52
2022/11/07 08:26:37;;;;;;;17.33;5.28;;;12.90;99.90;;;;;;5092935;28;20629;-54
2022/11/07 08:29:03;;;;;;;10.68;3.97;;;12.90;99.90;;;;;;5092952;28;20189;-53
2022/11/07 08:31:29;;;;;;;13.82;3.50;;;12.90;99.90;;;;;;5092842;28;20208;-53
2022/11/07 08:33:58;;;;;;;11.02;3.17;;;12.90;99.90;;;;;;5092825;28;20517;-53
2022/11/07 08:36:25;;;;;;;10.15;3.00;;;12.90;99.90;;;;;;5092797;28;20169;-52
2022/11/07 08:38:51;;;;;;;6.70;2.60;;;13.00;99.90;;;;;;5092641;28;20168;-55
2022/11/07 08:41:16;;;;;;;9.43;3.30;;;13.00;99.90;;;;;;5092576;28;20205;-52
2022/11/07 08:43:42;;;;;;;11.10;3.25;;;13.00;99.90;;;;;;5093108;28;20527;-52
2022/11/07 08:46:08;;;;;;;10.85;3.70;;;13.00;99.90;;;;;;5092559;28;20165;-53
2022/11/07 08:48:33;;;;;;;12.00;3.63;;;13.00;99.90;;;;;;5092523;28;20205;-52
2022/11/07 08:51:01;;;;;;;11.18;3.67;;;13.10;99.90;;;;;;5092522;28;20174;-52
2022/11/07 08:53:28;;;;;;;5.60;2.60;;;13.10;99.90;;;;;;5092748;28;20204;-52
2022/11/07 08:56:05;;;;;;;7.63;3.25;;;13.10;99.90;;;;;;5092206;28;20165;-52
2022/11/07 08:58:32;;;;;;;10.52;2.97;;;13.10;99.90;;;;;;5092542;28;20172;-53
2022/11/07 09:00:58;;;;;;;10.95;3.47;;;13.10;99.90;;;;;;5092270;28;20518;-53
2022/11/07 09:03:24;;;;;;;13.23;3.70;;;13.10;99.90;;;;;;5070625;28;20232;-53
2022/11/07 09:05:50;;;;;;;8.20;3.90;;;13.10;99.90;;;;;;5072286;28;20592;-52
2022/11/07 09:08:16;;;;;;;14.07;4.90;;;13.20;99.90;;;;;;5072167;28;20177;-53
2022/11/07 09:10:42;;;;;;;12.40;4.07;;;13.20;99.90;;;;;;5072352;28;20165;-54
2022/11/07 09:13:08;;;;;;;19.08;4.93;;;13.20;99.90;;;;;;5071948;28;20173;-52
2022/11/07 09:15:33;;;;;;;5.70;3.28;;;13.20;99.90;;;;;;5071946;28;20184;-55
2022/11/07 09:18:04;;;;;;;12.30;2.38;;;13.00;99.90;;;;;;5071855;28;20536;-55
2022/11/07 09:20:30;;;;;;;4.30;1.77;;;13.00;99.90;;;;;;5071916;28;20219;-55
2022/11/07 09:22:57;;;;;;;6.57;2.35;;;13.00;99.90;;;;;;5071767;28;20212;-55
2022/11/07 09:25:23;;;;;;;7.40;2.05;;;13.00;99.90;;;;;;5071832;28;20219;-55
2022/11/07 09:27:50;;;;;;;9.05;1.92;;;13.00;99.90;;;;;;5072010;28;20170;-54
2022/11/07 09:30:16;;;;;;;6.43;2.08;;;13.00;99.90;;;;;;5071919;28;20170;-54
2022/11/07 09:32:42;;;;;;;8.35;1.77;;;13.00;99.90;;;;;;5070876;28;20162;-55
2022/11/07 09:35:08;;;;;;;7.63;1.85;;;13.00;99.90;;;;;;5071696;28;20664;-54
2022/11/07 09:37:37;;;;;;;6.03;1.90;;;13.10;99.90;;;;;;5071644;28;20169;-52
2022/11/07 09:40:02;;;;;;;8.25;1.48;;;13.00;99.90;;;;;;5071632;28;20193;-55
2022/11/07 09:42:38;;;;;;;9.30;2.42;;;13.00;99.90;;;;;;5071662;28;20295;-55
2022/11/07 09:45:09;;;;;;;7.10;1.80;;;13.10;99.90;;;;;;5071555;28;20351;-53
2022/11/07 09:47:38;;;;;;;4.05;1.65;;;13.10;99.90;;;;;;5071619;28;20196;-52
2022/11/07 09:50:15;;;;;;;9.63;1.80;;;13.20;99.90;;;;;;5071339;28;20161;-54
2022/11/07 09:52:49;;;;;;;9.98;2.35;;;13.30;99.90;;;;;;5071984;28;20162;-54
2022/11/07 09:55:37;;;;;;;8.73;2.05;;;13.30;99.90;;;;;;5071470;28;20172;-54
2022/11/07 09:58:19;;;;;;;9.50;2.10;;;13.40;99.90;;;;;;5071391;28;20184;-54
2022/11/07 10:00:44;;;;;;;6.25;1.67;;;13.40;99.90;;;;;;5071657;28;20626;-53
2022/11/07 10:03:10;;;;;;;10.35;2.35;;;13.40;99.90;;;;;;5082224;28;20219;-55
2022/11/07 10:06:10;;;;;;;7.25;2.00;;;13.40;99.90;;;;;;5091629;28;20650;-54
2022/11/07 10:08:46;;;;;;;5.32;1.77;;;13.40;99.90;;;;;;5095570;28;20583;-54
2022/11/07 10:11:34;;;;;;;6.10;1.58;;;13.50;99.90;;;;;;5096126;28;20176;-55
2022/11/07 10:14:15;;;;;;;6.88;1.67;;;13.50;99.90;;;;;;5095355;28;20208;-54
2022/11/07 10:16:58;;;;;;;9.40;1.90;;;13.50;99.90;;;;;;5095782;28;20165;-53
2022/11/07 10:19:41;;;;;;;4.78;1.50;;;13.50;99.90;;;;;;5095709;28;20272;-55
2022/11/07 10:22:16;;;;;;;7.45;1.83;;;13.50;99.90;;;;;;5095166;28;20681;-55
2022/11/07 10:24:51;;;;;;;5.60;1.73;;;13.70;99.90;;;;;;5095623;28;20650;-55
2022/11/07 10:27:16;;;;;;;6.82;1.70;;;13.70;99.90;;;;;;5095125;28;20522;-55
2022/11/07 10:29:51;;;;;;;7.38;2.00;;;13.80;99.90;;;;;;5095200;28;20166;-55
2022/11/07 10:32:32;;;;;;;7.70;2.10;;;13.80;99.90;;;;;;5095054;28;20167;-55
2022/11/07 10:35:25;;;;;;;5.20;1.65;;;14.00;99.90;;;;;;5094962;28;20165;-55
2022/11/07 10:37:59;;;;;;;7.97;1.80;;;14.00;99.90;;;;;;5095214;28;20166;-52
2022/11/07 10:40:40;;;;;;;8.18;2.13;;;14.10;99.90;;;;;;5095105;28;20183;-52
2022/11/07 10:43:13;;;;;;;7.05;1.70;;;14.10;99.90;;;;;;5095086;28;20291;-53
2022/11/07 10:45:39;;;;;;;7.50;1.48;;;14.10;99.90;;;;;;5094907;28;20509;-54
2022/11/07 10:48:05;;;;;;;10.55;2.65;;;14.20;99.90;;;;;;5094845;28;20162;-55
2022/11/07 10:50:31;;;;;;;10.38;2.53;;;14.20;99.90;;;;;;5094818;28;20161;-53
2022/11/07 10:53:05;;;;;;;4.50;1.75;;;14.20;99.90;;;;;;5094758;28;20528;-53
2022/11/07 10:55:42;;;;;;;5.97;1.70;;;14.20;99.90;;;;;;5095027;28;20177;-52
2022/11/07 10:58:24;;;;;;;5.38;2.00;;;14.30;99.90;;;;;;5094654;28;20244;-52
2022/11/07 11:01:03;;;;;;;4.70;1.80;;;13.60;99.90;;;;;;5094154;28;20207;-53
2022/11/07 11:03:39;;;;;;;8.30;2.15;;;14.40;99.90;;;;;;5076236;28;20220;-52
2022/11/07 11:06:17;;;;;;;6.35;1.92;;;14.50;99.90;;;;;;5094331;28;20165;-52
2022/11/07 11:08:44;;;;;;;6.15;1.83;;;14.50;99.90;;;;;;5095063;28;20173;-52
2022/11/07 11:11:36;;;;;;;10.23;2.05;;;14.60;99.90;;;;;;5094608;28;20624;-53
2022/11/07 11:14:04;;;;;;;8.38;2.83;;;14.60;99.90;;;;;;5091287;28;20177;-52
2022/11/07 11:16:34;;;;;;;4.43;1.80;;;14.70;99.90;;;;;;5094608;28;20173;-52
2022/11/07 11:19:01;;;;;;;7.40;1.60;;;14.70;99.90;;;;;;5094207;28;20585;-53
2022/11/07 11:21:41;;;;;;;9.20;2.15;;;14.80;99.90;;;;;;5093939;28;20563;-52
2022/11/07 11:24:22;;;;;;;7.68;2.30;;;14.90;99.90;;;;;;5094108;28;20157;-51
2022/11/07 11:26:49;;;;;;;11.02;2.05;;;15.10;99.90;;;;;;5093714;28;20177;-52
2022/11/07 11:29:52;;;;;;;2.88;0.98;;;15.30;99.90;;;;;;5093979;28;20170;-52
2022/11/07 11:32:47;;;;;;;7.20;1.90;;;15.30;99.90;;;;;;5093911;28;20157;-54
2022/11/07 11:35:17;;;;;;;3.50;1.35;;;15.40;99.90;;;;;;5083683;28;20238;-52
2022/11/07 11:37:49;;;;;;;4.57;1.40;;;15.40;99.90;;;;;;5094269;28;20166;-53
2022/11/07 11:40:21;;;;;;;4.00;1.50;;;15.60;99.90;;;;;;5093496;28;20541;-53
2022/11/07 11:43:02;;;;;;;5.65;1.13;;;15.70;99.90;;;;;;5075495;28;20204;-52
2022/11/07 11:45:36;;;;;;;5.38;1.40;;;15.70;99.90;;;;;;5093526;28;20240;-52
2022/11/07 11:48:14;;;;;;;5.50;1.23;;;15.50;99.90;;;;;;5075715;28;20570;-52
2022/11/07 11:50:48;;;;;;;4.35;1.67;;;15.40;99.90;;;;;;5093934;28;20166;-53
2022/11/07 11:53:17;;;;;;;8.63;1.83;;;15.40;99.90;;;;;;5093853;28;20173;-52
2022/11/07 11:56:12;;;;;;;2.85;1.13;;;15.30;99.90;;;;;;5093981;28;20165;-53
2022/11/07 11:58:52;;;;;;;3.17;1.45;;;15.20;99.90;;;;;;5093504;28;20701;-52
2022/11/07 12:01:57;;;;;;;3.63;1.25;;;15.20;99.90;;;;;;5093391;28;20229;-52
2022/11/07 12:04:54;;;;;;;7.03;1.80;;;15.10;99.90;;;;;;5093673;28;20290;-53
2022/11/07 12:07:46;;;;;;;3.92;1.30;;;15.20;99.90;;;;;;5093340;28;20169;-53
2022/11/07 12:10:25;;;;;;;5.60;1.65;;;15.10;99.90;;;;;;5093685;28;20189;-52
2022/11/07 12:13:18;;;;;;;3.03;1.10;;;15.10;99.90;;;;;;5093270;28;20161;-52
2022/11/07 12:16:18;;;;;;;4.35;1.73;;;15.10;99.90;;;;;;5092944;28;20539;-52
2022/11/07 12:19:10;;;;;;;2.70;1.27;;;15.10;99.90;;;;;;5093090;28;20157;-52
2022/11/07 12:21:47;;;;;;;7.22;1.60;;;15.10;99.90;;;;;;5093150;28;20744;-52
2022/11/07 12:24:18;;;;;;;5.63;1.35;;;15.20;99.90;;;;;;5093245;28;20165;-52
2022/11/07 12:27:03;;;;;;;7.45;1.30;;;15.20;99.90;;;;;;5092949;28;20640;-52
2022/11/07 12:29:39;;;;;;;5.78;1.90;;;15.20;99.90;;;;;;5091893;28;20169;-52
2022/11/07 12:32:11;;;;;;;7.65;1.75;;;15.20;99.90;;;;;;5092925;28;20175;-52
2022/11/07 12:35:08;;;;;;;5.38;1.73;;;15.20;99.90;;;;;;5092634;28;20162;-53
2022/11/07 12:37:40;;;;;;;4.43;1.27;;;15.20;99.90;;;;;;5074578;28;20198;-52
2022/11/07 12:40:33;;;;;;;4.68;1.50;;;15.10;99.90;;;;;;5092358;28;20198;-52
2022/11/07 12:43:27;;;;;;;5.00;1.30;;;15.10;99.90;;;;;;5092459;28;20205;-52
2022/11/07 12:46:03;;;;;;;7.07;1.63;;;15.10;99.90;;;;;;5092518;28;20331;-52
2022/11/07 12:48:51;;;;;;;2.40;1.17;;;15.10;99.90;;;;;;5092314;28;20161;-52
2022/11/07 12:51:44;;;;;;;5.97;1.48;;;15.10;99.90;;;;;;5092207;28;20247;-53
2022/11/07 12:54:40;;;;;;;3.63;1.52;;;15.10;99.90;;;;;;5092589;28;20173;-52
2022/11/07 12:57:13;;;;;;;7.13;1.70;;;15.20;99.90;;;;;;5092234;28;20161;-52
2022/11/07 12:59:43;;;;;;;1.95;1.05;;;15.20;99.90;;;;;;5092579;28;20162;-53
2022/11/07 13:02:12;;;;;;;1.83;1.10;;;15.20;99.90;;;;;;5092153;28;20346;-52
2022/11/07 13:04:46;;;;;;;4.15;1.40;;;15.20;99.90;;;;;;5092345;28;20164;-52
2022/11/07 13:08:00;;;;;;;1.80;1.30;;;15.20;99.90;;;;;;5092644;28;20255;-54